sensor_id;sensor_type;location;lat;lon;timestamp;P1;durP1;ratioP1;P2;durP2;ratioP2
67941;SDS011;54731;42.600;23.476;2022-10-26T00:00:24;10.35;;;3.67;;
67941;SDS011;54731;42.600;23.476;2022-10-26T00:02:52;16.03;;;3.37;;
67941;SDS011;54731;42.600;23.476;2022-10-26T00:05:18;13.73;;;4.32;;
67941;SDS011;54731;42.600;23.476;2022-10-26T00:07:43;19.07;;;4.43;;
67941;SDS011;54731;42.600;23.476;2022-10-26T00:10:09;12.52;;;3.92;;
67941;SDS011;54731;42.600;23.476;2022-10-26T00:12:34;15.18;;;3.40;;
67941;SDS011;54731;42.600;23.476;2022-10-26T00:14:59;10.90;;;3.60;;
67941;SDS011;54731;42.600;23.476;2022-10-26T00:17:25;13.80;;;3.93;;
67941;SDS011;54731;42.600;23.476;2022-10-26T00:19:50;10.90;;;3.37;;
67941;SDS011;54731;42.600;23.476;2022-10-26T00:22:15;16.13;;;3.87;;
67941;SDS011;54731;42.600;23.476;2022-10-26T00:24:40;11.63;;;3.73;;
67941;SDS011;54731;42.600;23.476;2022-10-26T00:27:06;9.43;;;4.13;;
67941;SDS011;54731;42.600;23.476;2022-10-26T00:29:31;11.20;;;4.30;;
67941;SDS011;54731;42.600;23.476;2022-10-26T00:31:56;13.57;;;3.53;;
67941;SDS011;54731;42.600;23.476;2022-10-26T00:34:22;11.87;;;3.73;;
67941;SDS011;54731;42.600;23.476;2022-10-26T00:36:47;10.07;;;4.05;;
67941;SDS011;54731;42.600;23.476;2022-10-26T00:39:12;9.27;;;3.93;;
67941;SDS011;54731;42.600;23.476;2022-10-26T00:41:38;11.87;;;3.43;;
67941;SDS011;54731;42.600;23.476;2022-10-26T00:47:08;12.02;;;3.45;;
67941;SDS011;54731;42.600;23.476;2022-10-26T00:49:36;11.73;;;3.45;;
67941;SDS011;54731;42.600;23.476;2022-10-26T00:52:01;13.67;;;3.60;;
67941;SDS011;54731;42.600;23.476;2022-10-26T00:54:27;9.23;;;3.17;;
67941;SDS011;54731;42.600;23.476;2022-10-26T00:56:52;14.02;;;3.42;;
67941;SDS011;54731;42.600;23.476;2022-10-26T00:59:19;15.87;;;3.73;;
67941;SDS011;54731;42.600;23.476;2022-10-26T01:01:46;9.90;;;3.67;;
67941;SDS011;54731;42.600;23.476;2022-10-26T01:04:12;11.50;;;3.85;;
67941;SDS011;54731;42.600;23.476;2022-10-26T01:06:38;10.70;;;3.33;;
67941;SDS011;54731;42.600;23.476;2022-10-26T01:09:05;11.70;;;3.53;;
67941;SDS011;54731;42.600;23.476;2022-10-26T01:11:31;12.97;;;3.77;;
67941;SDS011;54731;42.600;23.476;2022-10-26T01:13:57;11.47;;;3.60;;
67941;SDS011;54731;42.600;23.476;2022-10-26T01:16:35;9.95;;;3.33;;
67941;SDS011;54731;42.600;23.476;2022-10-26T01:27:31;10.32;;;3.17;;
67941;SDS011;54731;42.600;23.476;2022-10-26T01:35:20;9.68;;;3.35;;
67941;SDS011;54731;42.600;23.476;2022-10-26T01:38:07;12.00;;;3.70;;
67941;SDS011;54731;42.600;23.476;2022-10-26T01:40:39;5.80;;;3.22;;
67941;SDS011;54731;42.600;23.476;2022-10-26T01:43:11;6.60;;;2.80;;
67941;SDS011;54731;42.600;23.476;2022-10-26T01:45:40;12.88;;;3.78;;
67941;SDS011;54731;42.600;23.476;2022-10-26T01:48:09;5.43;;;2.97;;
67941;SDS011;54731;42.600;23.476;2022-10-26T01:50:37;9.63;;;3.25;;
67941;SDS011;54731;42.600;23.476;2022-10-26T01:53:05;7.63;;;2.42;;
67941;SDS011;54731;42.600;23.476;2022-10-26T02:00:58;7.38;;;2.90;;
67941;SDS011;54731;42.600;23.476;2022-10-26T02:03:28;13.93;;;3.20;;
67941;SDS011;54731;42.600;23.476;2022-10-26T02:06:11;7.32;;;2.78;;
67941;SDS011;54731;42.600;23.476;2022-10-26T02:11:27;8.35;;;3.05;;
67941;SDS011;54731;42.600;23.476;2022-10-26T02:14:07;7.72;;;2.45;;
67941;SDS011;54731;42.600;23.476;2022-10-26T02:16:56;5.22;;;2.47;;
67941;SDS011;54731;42.600;23.476;2022-10-26T02:22:15;9.13;;;3.27;;
67941;SDS011;54731;42.600;23.476;2022-10-26T02:24:48;10.25;;;2.53;;
67941;SDS011;54731;42.600;23.476;2022-10-26T02:27:20;5.78;;;2.70;;
67941;SDS011;54731;42.600;23.476;2022-10-26T02:29:50;5.70;;;2.28;;
67941;SDS011;54731;42.600;23.476;2022-10-26T02:32:18;7.75;;;2.90;;
67941;SDS011;54731;42.600;23.476;2022-10-26T02:34:46;9.20;;;2.70;;
67941;SDS011;54731;42.600;23.476;2022-10-26T02:37:15;9.43;;;2.75;;
67941;SDS011;54731;42.600;23.476;2022-10-26T02:39:44;6.90;;;3.20;;
67941;SDS011;54731;42.600;23.476;2022-10-26T02:42:13;7.68;;;2.33;;
67941;SDS011;54731;42.600;23.476;2022-10-26T02:44:49;7.60;;;3.08;;
67941;SDS011;54731;42.600;23.476;2022-10-26T02:47:17;8.70;;;3.13;;
67941;SDS011;54731;42.600;23.476;2022-10-26T02:49:43;7.30;;;2.50;;
67941;SDS011;54731;42.600;23.476;2022-10-26T02:52:44;8.27;;;3.00;;
67941;SDS011;54731;42.600;23.476;2022-10-26T02:57:42;6.03;;;2.80;;
67941;SDS011;54731;42.600;23.476;2022-10-26T03:00:13;8.07;;;2.78;;
67941;SDS011;54731;42.600;23.476;2022-10-26T03:02:44;7.50;;;2.83;;
67941;SDS011;54731;42.600;23.476;2022-10-26T03:05:25;6.65;;;2.90;;
67941;SDS011;54731;42.600;23.476;2022-10-26T03:07:52;10.13;;;3.00;;
67941;SDS011;54731;42.600;23.476;2022-10-26T03:10:19;7.32;;;2.88;;
67941;SDS011;54731;42.600;23.476;2022-10-26T03:12:44;7.35;;;3.00;;
67941;SDS011;54731;42.600;23.476;2022-10-26T03:15:10;8.20;;;3.33;;
67941;SDS011;54731;42.600;23.476;2022-10-26T03:17:36;7.38;;;2.72;;
67941;SDS011;54731;42.600;23.476;2022-10-26T03:20:01;9.37;;;3.80;;
67941;SDS011;54731;42.600;23.476;2022-10-26T03:22:26;7.47;;;3.63;;
67941;SDS011;54731;42.600;23.476;2022-10-26T03:24:52;13.30;;;3.10;;
67941;SDS011;54731;42.600;23.476;2022-10-26T03:27:17;7.60;;;3.37;;
67941;SDS011;54731;42.600;23.476;2022-10-26T03:29:42;7.77;;;3.60;;
67941;SDS011;54731;42.600;23.476;2022-10-26T03:32:08;8.52;;;3.08;;
67941;SDS011;54731;42.600;23.476;2022-10-26T03:34:33;16.53;;;3.93;;
67941;SDS011;54731;42.600;23.476;2022-10-26T03:36:58;11.23;;;3.60;;
67941;SDS011;54731;42.600;23.476;2022-10-26T03:39:24;10.93;;;3.30;;
67941;SDS011;54731;42.600;23.476;2022-10-26T03:41:49;6.90;;;3.00;;
67941;SDS011;54731;42.600;23.476;2022-10-26T03:44:14;8.33;;;3.23;;
67941;SDS011;54731;42.600;23.476;2022-10-26T03:46:40;7.70;;;3.40;;
67941;SDS011;54731;42.600;23.476;2022-10-26T03:49:05;8.88;;;3.95;;
67941;SDS011;54731;42.600;23.476;2022-10-26T03:51:30;5.90;;;3.58;;
67941;SDS011;54731;42.600;23.476;2022-10-26T03:53:56;7.10;;;3.47;;
67941;SDS011;54731;42.600;23.476;2022-10-26T03:56:21;10.23;;;3.53;;
67941;SDS011;54731;42.600;23.476;2022-10-26T03:58:47;5.90;;;3.40;;
67941;SDS011;54731;42.600;23.476;2022-10-26T04:01:12;9.60;;;3.87;;
67941;SDS011;54731;42.600;23.476;2022-10-26T04:03:37;10.07;;;3.97;;
67941;SDS011;54731;42.600;23.476;2022-10-26T04:06:03;7.68;;;4.50;;
67941;SDS011;54731;42.600;23.476;2022-10-26T04:08:29;8.50;;;3.67;;
67941;SDS011;54731;42.600;23.476;2022-10-26T04:10:54;10.50;;;3.80;;
67941;SDS011;54731;42.600;23.476;2022-10-26T04:13:19;10.10;;;3.28;;
67941;SDS011;54731;42.600;23.476;2022-10-26T04:15:45;8.93;;;3.30;;
67941;SDS011;54731;42.600;23.476;2022-10-26T04:18:10;7.27;;;3.50;;
67941;SDS011;54731;42.600;23.476;2022-10-26T04:20:35;6.93;;;4.83;;
67941;SDS011;54731;42.600;23.476;2022-10-26T04:23:02;12.47;;;5.30;;
67941;SDS011;54731;42.600;23.476;2022-10-26T04:25:29;7.25;;;3.30;;
67941;SDS011;54731;42.600;23.476;2022-10-26T04:27:55;8.70;;;3.35;;
67941;SDS011;54731;42.600;23.476;2022-10-26T04:30:21;14.10;;;6.03;;
67941;SDS011;54731;42.600;23.476;2022-10-26T04:32:47;12.60;;;3.83;;
67941;SDS011;54731;42.600;23.476;2022-10-26T04:35:12;6.50;;;3.55;;
67941;SDS011;54731;42.600;23.476;2022-10-26T04:37:37;9.67;;;3.53;;
67941;SDS011;54731;42.600;23.476;2022-10-26T04:40:03;9.50;;;3.63;;
67941;SDS011;54731;42.600;23.476;2022-10-26T04:42:28;6.65;;;3.47;;
67941;SDS011;54731;42.600;23.476;2022-10-26T04:44:54;9.70;;;3.40;;
67941;SDS011;54731;42.600;23.476;2022-10-26T04:47:19;7.17;;;3.30;;
67941;SDS011;54731;42.600;23.476;2022-10-26T04:49:44;9.13;;;3.70;;
67941;SDS011;54731;42.600;23.476;2022-10-26T04:52:10;8.17;;;3.77;;
67941;SDS011;54731;42.600;23.476;2022-10-26T04:54:35;12.43;;;3.97;;
67941;SDS011;54731;42.600;23.476;2022-10-26T04:57:00;8.90;;;4.40;;
67941;SDS011;54731;42.600;23.476;2022-10-26T04:59:25;11.80;;;4.30;;
67941;SDS011;54731;42.600;23.476;2022-10-26T05:01:51;7.97;;;3.70;;
67941;SDS011;54731;42.600;23.476;2022-10-26T05:04:16;10.27;;;4.07;;
67941;SDS011;54731;42.600;23.476;2022-10-26T05:06:41;11.48;;;4.57;;
67941;SDS011;54731;42.600;23.476;2022-10-26T05:09:07;8.37;;;4.03;;
67941;SDS011;54731;42.600;23.476;2022-10-26T05:11:32;20.03;;;4.83;;
67941;SDS011;54731;42.600;23.476;2022-10-26T05:13:57;11.70;;;4.50;;
67941;SDS011;54731;42.600;23.476;2022-10-26T05:16:23;9.37;;;4.13;;
67941;SDS011;54731;42.600;23.476;2022-10-26T05:18:48;7.60;;;4.23;;
67941;SDS011;54731;42.600;23.476;2022-10-26T05:21:13;10.43;;;5.13;;
67941;SDS011;54731;42.600;23.476;2022-10-26T05:23:39;10.27;;;4.78;;
67941;SDS011;54731;42.600;23.476;2022-10-26T05:26:04;10.00;;;4.73;;
67941;SDS011;54731;42.600;23.476;2022-10-26T05:28:29;9.73;;;5.00;;
67941;SDS011;54731;42.600;23.476;2022-10-26T05:30:57;13.00;;;4.87;;
67941;SDS011;54731;42.600;23.476;2022-10-26T05:33:22;10.63;;;5.18;;
67941;SDS011;54731;42.600;23.476;2022-10-26T05:35:47;15.03;;;5.03;;
67941;SDS011;54731;42.600;23.476;2022-10-26T05:38:14;10.03;;;4.77;;
67941;SDS011;54731;42.600;23.476;2022-10-26T05:40:51;9.30;;;4.47;;
67941;SDS011;54731;42.600;23.476;2022-10-26T05:43:18;8.27;;;4.03;;
67941;SDS011;54731;42.600;23.476;2022-10-26T05:45:44;10.82;;;4.45;;
67941;SDS011;54731;42.600;23.476;2022-10-26T05:48:09;9.43;;;4.07;;
67941;SDS011;54731;42.600;23.476;2022-10-26T05:50:35;8.83;;;4.53;;
67941;SDS011;54731;42.600;23.476;2022-10-26T05:53:00;9.37;;;3.63;;
67941;SDS011;54731;42.600;23.476;2022-10-26T05:55:25;7.40;;;3.87;;
67941;SDS011;54731;42.600;23.476;2022-10-26T05:57:51;10.00;;;4.30;;
67941;SDS011;54731;42.600;23.476;2022-10-26T06:00:18;9.98;;;5.03;;
67941;SDS011;54731;42.600;23.476;2022-10-26T06:05:18;8.55;;;3.90;;
67941;SDS011;54731;42.600;23.476;2022-10-26T06:07:47;12.45;;;4.55;;
67941;SDS011;54731;42.600;23.476;2022-10-26T06:10:13;11.65;;;4.20;;
67941;SDS011;54731;42.600;23.476;2022-10-26T06:12:39;12.67;;;4.70;;
67941;SDS011;54731;42.600;23.476;2022-10-26T06:15:04;14.73;;;5.15;;
67941;SDS011;54731;42.600;23.476;2022-10-26T06:28:52;8.85;;;4.38;;
67941;SDS011;54731;42.600;23.476;2022-10-26T06:31:20;8.73;;;4.37;;
67941;SDS011;54731;42.600;23.476;2022-10-26T06:33:46;11.45;;;4.43;;
67941;SDS011;54731;42.600;23.476;2022-10-26T06:36:21;8.20;;;4.10;;
67941;SDS011;54731;42.600;23.476;2022-10-26T06:38:51;11.85;;;4.57;;
67941;SDS011;54731;42.600;23.476;2022-10-26T06:41:25;8.45;;;5.13;;
67941;SDS011;54731;42.600;23.476;2022-10-26T06:43:50;8.80;;;4.13;;
67941;SDS011;54731;42.600;23.476;2022-10-26T06:51:29;9.10;;;4.30;;
67941;SDS011;54731;42.600;23.476;2022-10-26T06:56:26;14.35;;;4.47;;
67941;SDS011;54731;42.600;23.476;2022-10-26T06:58:52;12.43;;;6.43;;
67941;SDS011;54731;42.600;23.476;2022-10-26T07:01:20;13.43;;;6.68;;
67941;SDS011;54731;42.600;23.476;2022-10-26T07:03:45;14.17;;;6.70;;
67941;SDS011;54731;42.600;23.476;2022-10-26T07:06:10;20.20;;;6.33;;
67941;SDS011;54731;42.600;23.476;2022-10-26T07:08:35;12.77;;;6.68;;
67941;SDS011;54731;42.600;23.476;2022-10-26T07:11:01;20.73;;;5.72;;
67941;SDS011;54731;42.600;23.476;2022-10-26T07:13:26;12.40;;;6.10;;
67941;SDS011;54731;42.600;23.476;2022-10-26T07:15:51;20.10;;;6.97;;
67941;SDS011;54731;42.600;23.476;2022-10-26T07:18:17;15.60;;;6.90;;
67941;SDS011;54731;42.600;23.476;2022-10-26T07:20:42;19.83;;;7.33;;
67941;SDS011;54731;42.600;23.476;2022-10-26T07:23:08;18.00;;;6.63;;
67941;SDS011;54731;42.600;23.476;2022-10-26T07:25:34;15.73;;;7.85;;
67941;SDS011;54731;42.600;23.476;2022-10-26T07:27:59;15.23;;;7.43;;
67941;SDS011;54731;42.600;23.476;2022-10-26T07:30:26;18.65;;;7.70;;
67941;SDS011;54731;42.600;23.476;2022-10-26T07:33:03;14.13;;;7.15;;
67941;SDS011;54731;42.600;23.476;2022-10-26T07:35:31;20.17;;;7.22;;
67941;SDS011;54731;42.600;23.476;2022-10-26T07:37:57;20.73;;;7.80;;
67941;SDS011;54731;42.600;23.476;2022-10-26T07:40:23;21.08;;;7.35;;
67941;SDS011;54731;42.600;23.476;2022-10-26T07:42:49;19.38;;;7.90;;
67941;SDS011;54731;42.600;23.476;2022-10-26T07:45:15;15.40;;;7.27;;
67941;SDS011;54731;42.600;23.476;2022-10-26T07:47:40;18.80;;;6.95;;
67941;SDS011;54731;42.600;23.476;2022-10-26T07:50:05;20.20;;;7.10;;
67941;SDS011;54731;42.600;23.476;2022-10-26T07:52:31;13.40;;;7.53;;
67941;SDS011;54731;42.600;23.476;2022-10-26T07:54:56;13.97;;;6.83;;
67941;SDS011;54731;42.600;23.476;2022-10-26T07:57:22;14.83;;;6.73;;
67941;SDS011;54731;42.600;23.476;2022-10-26T07:59:47;22.30;;;8.67;;
67941;SDS011;54731;42.600;23.476;2022-10-26T08:02:12;17.63;;;6.55;;
67941;SDS011;54731;42.600;23.476;2022-10-26T08:04:37;10.93;;;6.80;;
67941;SDS011;54731;42.600;23.476;2022-10-26T08:07:03;20.23;;;7.73;;
67941;SDS011;54731;42.600;23.476;2022-10-26T08:09:28;17.37;;;7.80;;
67941;SDS011;54731;42.600;23.476;2022-10-26T08:11:53;22.73;;;8.77;;
67941;SDS011;54731;42.600;23.476;2022-10-26T08:14:19;14.47;;;7.17;;
67941;SDS011;54731;42.600;23.476;2022-10-26T08:16:44;17.27;;;6.13;;
67941;SDS011;54731;42.600;23.476;2022-10-26T08:19:09;13.97;;;6.20;;
67941;SDS011;54731;42.600;23.476;2022-10-26T08:21:35;22.43;;;7.37;;
67941;SDS011;54731;42.600;23.476;2022-10-26T08:24:00;11.53;;;6.00;;
67941;SDS011;54731;42.600;23.476;2022-10-26T08:26:25;18.50;;;6.50;;
67941;SDS011;54731;42.600;23.476;2022-10-26T08:28:50;11.43;;;5.97;;
67941;SDS011;54731;42.600;23.476;2022-10-26T08:31:16;14.87;;;6.37;;
67941;SDS011;54731;42.600;23.476;2022-10-26T08:33:41;10.50;;;5.17;;
67941;SDS011;54731;42.600;23.476;2022-10-26T08:36:06;15.77;;;5.93;;
67941;SDS011;54731;42.600;23.476;2022-10-26T08:38:32;22.17;;;6.30;;
67941;SDS011;54731;42.600;23.476;2022-10-26T08:40:57;17.90;;;5.60;;
67941;SDS011;54731;42.600;23.476;2022-10-26T08:46:03;15.77;;;5.78;;
67941;SDS011;54731;42.600;23.476;2022-10-26T08:48:35;15.70;;;5.85;;
67941;SDS011;54731;42.600;23.476;2022-10-26T08:51:09;12.25;;;6.30;;
67941;SDS011;54731;42.600;23.476;2022-10-26T08:56:20;10.37;;;3.37;;
67941;SDS011;54731;42.600;23.476;2022-10-26T08:58:56;8.45;;;3.22;;
67941;SDS011;54731;42.600;23.476;2022-10-26T09:01:25;7.80;;;2.45;;
67941;SDS011;54731;42.600;23.476;2022-10-26T09:03:50;7.90;;;2.87;;
67941;SDS011;54731;42.600;23.476;2022-10-26T09:14:31;7.72;;;1.48;;
67941;SDS011;54731;42.600;23.476;2022-10-26T09:22:51;5.87;;;1.80;;
67941;SDS011;54731;42.600;23.476;2022-10-26T09:27:53;6.78;;;1.20;;
67941;SDS011;54731;42.600;23.476;2022-10-26T09:30:21;2.58;;;1.13;;
67941;SDS011;54731;42.600;23.476;2022-10-26T09:33:10;6.30;;;1.73;;
67941;SDS011;54731;42.600;23.476;2022-10-26T09:38:33;3.30;;;1.65;;
67941;SDS011;54731;42.600;23.476;2022-10-26T09:46:48;5.47;;;2.15;;
67941;SDS011;54731;42.600;23.476;2022-10-26T09:49:22;6.87;;;1.93;;
67941;SDS011;54731;42.600;23.476;2022-10-26T09:51:51;6.78;;;2.30;;
67941;SDS011;54731;42.600;23.476;2022-10-26T09:54:18;10.03;;;1.70;;
67941;SDS011;54731;42.600;23.476;2022-10-26T09:56:46;6.30;;;1.75;;
67941;SDS011;54731;42.600;23.476;2022-10-26T09:59:16;6.43;;;1.92;;
67941;SDS011;54731;42.600;23.476;2022-10-26T10:01:45;8.63;;;1.73;;
67941;SDS011;54731;42.600;23.476;2022-10-26T10:06:39;4.80;;;1.40;;
67941;SDS011;54731;42.600;23.476;2022-10-26T10:11:43;7.20;;;1.38;;
67941;SDS011;54731;42.600;23.476;2022-10-26T10:14:15;5.75;;;1.70;;
67941;SDS011;54731;42.600;23.476;2022-10-26T10:16:41;7.32;;;1.90;;
67941;SDS011;54731;42.600;23.476;2022-10-26T10:19:22;7.38;;;2.15;;
67941;SDS011;54731;42.600;23.476;2022-10-26T10:21:54;6.77;;;1.53;;
67941;SDS011;54731;42.600;23.476;2022-10-26T10:24:31;3.97;;;1.45;;
67941;SDS011;54731;42.600;23.476;2022-10-26T10:27:04;5.40;;;1.88;;
67941;SDS011;54731;42.600;23.476;2022-10-26T10:29:33;9.20;;;1.48;;
67941;SDS011;54731;42.600;23.476;2022-10-26T10:32:04;4.82;;;1.83;;
67941;SDS011;54731;42.600;23.476;2022-10-26T10:34:30;3.93;;;1.47;;
67941;SDS011;54731;42.600;23.476;2022-10-26T10:36:56;4.50;;;1.40;;
67941;SDS011;54731;42.600;23.476;2022-10-26T10:39:41;6.10;;;2.20;;
67941;SDS011;54731;42.600;23.476;2022-10-26T10:42:16;7.10;;;1.75;;
67941;SDS011;54731;42.600;23.476;2022-10-26T10:44:45;5.18;;;1.50;;
67941;SDS011;54731;42.600;23.476;2022-10-26T10:47:20;4.72;;;1.73;;
67941;SDS011;54731;42.600;23.476;2022-10-26T10:49:56;8.27;;;2.25;;
67941;SDS011;54731;42.600;23.476;2022-10-26T10:52:26;3.92;;;1.83;;
67941;SDS011;54731;42.600;23.476;2022-10-26T10:54:56;9.45;;;1.95;;
67941;SDS011;54731;42.600;23.476;2022-10-26T11:00:29;5.78;;;2.15;;
67941;SDS011;54731;42.600;23.476;2022-10-26T11:08:07;5.38;;;2.35;;
67941;SDS011;54731;42.600;23.476;2022-10-26T11:10:45;7.65;;;2.25;;
67941;SDS011;54731;42.600;23.476;2022-10-26T11:13:19;8.70;;;2.05;;
67941;SDS011;54731;42.600;23.476;2022-10-26T11:15:49;5.53;;;2.17;;
67941;SDS011;54731;42.600;23.476;2022-10-26T11:18:30;4.85;;;1.75;;
67941;SDS011;54731;42.600;23.476;2022-10-26T11:21:43;3.85;;;1.60;;
67941;SDS011;54731;42.600;23.476;2022-10-26T11:26:37;4.60;;;1.90;;
67941;SDS011;54731;42.600;23.476;2022-10-26T11:45:57;4.57;;;1.80;;
67941;SDS011;54731;42.600;23.476;2022-10-26T11:51:00;4.80;;;2.10;;
67941;SDS011;54731;42.600;23.476;2022-10-26T11:53:30;6.63;;;1.80;;
67941;SDS011;54731;42.600;23.476;2022-10-26T11:56:02;5.60;;;2.10;;
67941;SDS011;54731;42.600;23.476;2022-10-26T11:58:29;6.32;;;2.05;;
67941;SDS011;54731;42.600;23.476;2022-10-26T12:01:00;5.20;;;2.17;;
67941;SDS011;54731;42.600;23.476;2022-10-26T12:03:37;4.32;;;1.80;;
67941;SDS011;54731;42.600;23.476;2022-10-26T12:06:07;12.38;;;2.60;;
67941;SDS011;54731;42.600;23.476;2022-10-26T12:08:36;3.93;;;2.33;;
67941;SDS011;54731;42.600;23.476;2022-10-26T12:14:16;7.13;;;2.20;;
67941;SDS011;54731;42.600;23.476;2022-10-26T12:19:41;6.35;;;2.45;;
67941;SDS011;54731;42.600;23.476;2022-10-26T12:22:39;5.43;;;2.10;;
67941;SDS011;54731;42.600;23.476;2022-10-26T12:37:59;7.55;;;2.13;;
67941;SDS011;54731;42.600;23.476;2022-10-26T12:42:55;5.25;;;2.08;;
67941;SDS011;54731;42.600;23.476;2022-10-26T12:45:22;5.63;;;1.67;;
67941;SDS011;54731;42.600;23.476;2022-10-26T13:00:24;2.25;;;1.50;;
67941;SDS011;54731;42.600;23.476;2022-10-26T13:08:44;5.45;;;1.77;;
67941;SDS011;54731;42.600;23.476;2022-10-26T13:11:15;3.20;;;1.13;;
67941;SDS011;54731;42.600;23.476;2022-10-26T13:13:43;4.57;;;1.48;;
67941;SDS011;54731;42.600;23.476;2022-10-26T13:16:16;4.63;;;1.27;;
67941;SDS011;54731;42.600;23.476;2022-10-26T13:18:42;3.53;;;1.17;;
67941;SDS011;54731;42.600;23.476;2022-10-26T13:21:09;3.15;;;1.00;;
67941;SDS011;54731;42.600;23.476;2022-10-26T13:23:38;3.83;;;1.27;;
67941;SDS011;54731;42.600;23.476;2022-10-26T13:26:09;2.88;;;1.05;;
67941;SDS011;54731;42.600;23.476;2022-10-26T13:31:02;5.25;;;1.27;;
67941;SDS011;54731;42.600;23.476;2022-10-26T13:34:00;2.63;;;0.68;;
67941;SDS011;54731;42.600;23.476;2022-10-26T13:39:16;3.47;;;1.30;;
67941;SDS011;54731;42.600;23.476;2022-10-26T13:41:45;6.50;;;1.15;;
67941;SDS011;54731;42.600;23.476;2022-10-26T13:44:22;4.13;;;1.02;;
67941;SDS011;54731;42.600;23.476;2022-10-26T13:46:54;7.65;;;1.08;;
67941;SDS011;54731;42.600;23.476;2022-10-26T13:49:24;7.07;;;1.13;;
67941;SDS011;54731;42.600;23.476;2022-10-26T13:51:54;2.30;;;0.93;;
67941;SDS011;54731;42.600;23.476;2022-10-26T13:54:26;10.43;;;1.30;;
67941;SDS011;54731;42.600;23.476;2022-10-26T13:57:09;5.70;;;1.53;;
67941;SDS011;54731;42.600;23.476;2022-10-26T13:59:36;2.65;;;0.70;;
67941;SDS011;54731;42.600;23.476;2022-10-26T14:04:47;2.42;;;0.85;;
67941;SDS011;54731;42.600;23.476;2022-10-26T14:07:20;10.60;;;1.52;;
67941;SDS011;54731;42.600;23.476;2022-10-26T14:09:48;7.20;;;1.20;;
67941;SDS011;54731;42.600;23.476;2022-10-26T14:12:18;5.72;;;0.85;;
67941;SDS011;54731;42.600;23.476;2022-10-26T14:14:44;2.58;;;1.00;;
67941;SDS011;54731;42.600;23.476;2022-10-26T14:17:19;4.45;;;1.27;;
67941;SDS011;54731;42.600;23.476;2022-10-26T14:19:48;5.53;;;1.00;;
67941;SDS011;54731;42.600;23.476;2022-10-26T14:22:19;2.83;;;0.95;;
67941;SDS011;54731;42.600;23.476;2022-10-26T14:24:53;2.13;;;1.30;;
67941;SDS011;54731;42.600;23.476;2022-10-26T14:27:24;4.68;;;1.38;;
67941;SDS011;54731;42.600;23.476;2022-10-26T14:29:52;3.28;;;2.30;;
67941;SDS011;54731;42.600;23.476;2022-10-26T14:32:19;3.40;;;1.30;;
67941;SDS011;54731;42.600;23.476;2022-10-26T14:34:52;4.10;;;1.83;;
67941;SDS011;54731;42.600;23.476;2022-10-26T14:37:24;4.72;;;1.65;;
67941;SDS011;54731;42.600;23.476;2022-10-26T14:40:15;4.13;;;1.42;;
67941;SDS011;54731;42.600;23.476;2022-10-26T14:42:43;5.28;;;1.15;;
67941;SDS011;54731;42.600;23.476;2022-10-26T14:45:21;8.00;;;1.27;;
67941;SDS011;54731;42.600;23.476;2022-10-26T14:47:49;5.43;;;1.67;;
67941;SDS011;54731;42.600;23.476;2022-10-26T14:50:18;2.15;;;1.10;;
67941;SDS011;54731;42.600;23.476;2022-10-26T14:52:52;2.40;;;1.17;;
67941;SDS011;54731;42.600;23.476;2022-10-26T14:55:19;3.60;;;1.35;;
67941;SDS011;54731;42.600;23.476;2022-10-26T14:57:46;2.17;;;0.85;;
67941;SDS011;54731;42.600;23.476;2022-10-26T15:00:24;8.40;;;1.10;;
67941;SDS011;54731;42.600;23.476;2022-10-26T15:02:53;5.93;;;1.00;;
67941;SDS011;54731;42.600;23.476;2022-10-26T15:07:48;4.45;;;1.00;;
67941;SDS011;54731;42.600;23.476;2022-10-26T15:13:08;3.17;;;1.17;;
67941;SDS011;54731;42.600;23.476;2022-10-26T15:15:34;4.68;;;1.42;;
67941;SDS011;54731;42.600;23.476;2022-10-26T15:17:59;4.20;;;1.10;;
67941;SDS011;54731;42.600;23.476;2022-10-26T15:20:26;5.18;;;0.80;;
67941;SDS011;54731;42.600;23.476;2022-10-26T15:22:53;6.53;;;1.50;;
67941;SDS011;54731;42.600;23.476;2022-10-26T15:25:25;6.20;;;1.02;;
67941;SDS011;54731;42.600;23.476;2022-10-26T15:27:52;7.85;;;1.60;;
67941;SDS011;54731;42.600;23.476;2022-10-26T15:32:48;8.20;;;1.30;;
67941;SDS011;54731;42.600;23.476;2022-10-26T15:37:42;5.72;;;1.30;;
67941;SDS011;54731;42.600;23.476;2022-10-26T15:40:08;3.87;;;1.10;;
67941;SDS011;54731;42.600;23.476;2022-10-26T15:42:34;12.60;;;3.47;;
67941;SDS011;54731;42.600;23.476;2022-10-26T15:45:00;2.75;;;1.58;;
67941;SDS011;54731;42.600;23.476;2022-10-26T15:47:29;5.63;;;1.10;;
67941;SDS011;54731;42.600;23.476;2022-10-26T15:49:57;4.75;;;1.10;;
67941;SDS011;54731;42.600;23.476;2022-10-26T15:52:22;6.97;;;0.93;;
67941;SDS011;54731;42.600;23.476;2022-10-26T15:54:48;6.20;;;1.13;;
67941;SDS011;54731;42.600;23.476;2022-10-26T15:57:13;3.80;;;0.80;;
67941;SDS011;54731;42.600;23.476;2022-10-26T15:59:38;3.17;;;0.88;;
67941;SDS011;54731;42.600;23.476;2022-10-26T16:02:11;3.88;;;1.05;;
67941;SDS011;54731;42.600;23.476;2022-10-26T16:04:37;5.93;;;1.03;;
67941;SDS011;54731;42.600;23.476;2022-10-26T16:07:02;6.10;;;1.20;;
67941;SDS011;54731;42.600;23.476;2022-10-26T16:09:28;2.15;;;0.90;;
67941;SDS011;54731;42.600;23.476;2022-10-26T16:11:56;4.07;;;1.00;;
67941;SDS011;54731;42.600;23.476;2022-10-26T16:14:22;4.03;;;1.00;;
67941;SDS011;54731;42.600;23.476;2022-10-26T16:16:47;1.40;;;0.60;;
67941;SDS011;54731;42.600;23.476;2022-10-26T16:19:12;3.40;;;0.97;;
67941;SDS011;54731;42.600;23.476;2022-10-26T16:21:37;5.50;;;1.13;;
67941;SDS011;54731;42.600;23.476;2022-10-26T16:24:03;4.83;;;0.80;;
67941;SDS011;54731;42.600;23.476;2022-10-26T16:26:28;5.67;;;1.00;;
67941;SDS011;54731;42.600;23.476;2022-10-26T16:28:53;3.20;;;1.20;;
67941;SDS011;54731;42.600;23.476;2022-10-26T16:31:19;4.47;;;1.48;;
67941;SDS011;54731;42.600;23.476;2022-10-26T16:33:45;2.50;;;0.80;;
67941;SDS011;54731;42.600;23.476;2022-10-26T16:36:10;4.40;;;0.80;;
67941;SDS011;54731;42.600;23.476;2022-10-26T16:38:37;6.55;;;2.58;;
67941;SDS011;54731;42.600;23.476;2022-10-26T16:41:10;17.55;;;5.70;;
67941;SDS011;54731;42.600;23.476;2022-10-26T16:43:37;33.83;;;14.85;;
67941;SDS011;54731;42.600;23.476;2022-10-26T16:46:05;6.72;;;2.22;;
67941;SDS011;54731;42.600;23.476;2022-10-26T16:48:35;27.35;;;10.65;;
67941;SDS011;54731;42.600;23.476;2022-10-26T16:51:05;35.17;;;11.88;;
67941;SDS011;54731;42.600;23.476;2022-10-26T16:53:40;2.90;;;1.30;;
67941;SDS011;54731;42.600;23.476;2022-10-26T16:56:07;3.40;;;0.90;;
67941;SDS011;54731;42.600;23.476;2022-10-26T16:58:35;5.82;;;2.47;;
67941;SDS011;54731;42.600;23.476;2022-10-26T17:01:01;3.83;;;1.70;;
67941;SDS011;54731;42.600;23.476;2022-10-26T17:03:26;8.33;;;2.87;;
67941;SDS011;54731;42.600;23.476;2022-10-26T17:05:58;4.80;;;1.43;;
67941;SDS011;54731;42.600;23.476;2022-10-26T17:08:29;4.65;;;2.20;;
67941;SDS011;54731;42.600;23.476;2022-10-26T17:11:01;2.58;;;1.27;;
67941;SDS011;54731;42.600;23.476;2022-10-26T17:13:47;4.03;;;1.92;;
67941;SDS011;54731;42.600;23.476;2022-10-26T17:16:18;4.47;;;1.63;;
67941;SDS011;54731;42.600;23.476;2022-10-26T17:18:45;2.88;;;1.00;;
67941;SDS011;54731;42.600;23.476;2022-10-26T17:21:12;3.25;;;1.17;;
67941;SDS011;54731;42.600;23.476;2022-10-26T17:23:39;4.88;;;1.30;;
67941;SDS011;54731;42.600;23.476;2022-10-26T17:26:05;3.07;;;1.10;;
67941;SDS011;54731;42.600;23.476;2022-10-26T17:28:32;5.18;;;1.10;;
67941;SDS011;54731;42.600;23.476;2022-10-26T17:31:05;2.65;;;1.08;;
67941;SDS011;54731;42.600;23.476;2022-10-26T17:33:35;3.25;;;1.40;;